Time;durP1;ratioP1;P1;durP2;ratioP2;P2;SDS_P1;SDS_P2;PMS_P1;PMS_P2;Temp;Humidity;BMP_temperature;BMP_pressure;BME280_temperature;BME280_humidity;BME280_pressure;Samples;Min_cycle;Max_cycle;Signal;HPM_P1;HPM_P2
2022/04/19 00:01:16;;;;;;;4.43;2.33;;;;;;;5.71;96.21;100734.97;5174623;28;20642;-76
2022/04/19 00:03:46;;;;;;;3.95;2.33;;;;;;;5.66;96.97;100735.91;5154561;28;20029;-76
2022/04/19 00:06:16;;;;;;;4.93;2.30;;;;;;;5.61;97.07;100730.78;5174737;28;20026;-76
2022/04/19 00:08:48;;;;;;;4.10;2.30;;;;;;;5.77;97.16;100723.66;5172580;28;20145;-76
2022/04/19 00:11:18;;;;;;;3.75;2.35;;;;;;;5.82;94.18;100727.06;5166841;28;20031;-76
2022/04/19 00:13:48;;;;;;;4.95;2.67;;;;;;;5.77;95.26;100726.25;5167422;28;20026;-76
2022/04/19 00:16:18;;;;;;;4.68;2.80;;;;;;;5.59;94.42;100719.56;5174182;28;20121;-76
2022/04/19 00:18:49;;;;;;;3.90;2.30;;;;;;;5.54;94.56;100718.78;5171309;28;20026;-76
2022/04/19 00:21:20;;;;;;;4.28;2.60;;;;;;;5.56;95.49;100726.56;5170702;28;20026;-76
2022/04/19 00:23:50;;;;;;;6.75;2.60;;;;;;;5.67;96.58;100719.47;5173561;28;20025;-76
2022/04/19 00:26:21;;;;;;;5.68;2.70;;;;;;;5.83;95.46;100718.41;5171155;28;20119;-76
2022/04/19 00:28:51;;;;;;;5.75;2.63;;;;;;;5.80;93.36;100728.84;5174820;28;20025;-76
2022/04/19 00:31:22;;;;;;;4.90;2.80;;;;;;;5.69;96.38;100730.66;5170619;28;20137;-76
2022/04/19 00:33:52;;;;;;;5.05;2.55;;;;;;;5.91;93.76;100722.63;5166601;28;20063;-76
2022/04/19 00:36:23;;;;;;;3.57;2.40;;;;;;;5.82;92.76;100727.06;5175102;28;20030;-76
2022/04/19 00:38:53;;;;;;;4.78;2.50;;;;;;;5.66;94.26;100725.53;5161383;28;20396;-76
2022/04/19 00:41:24;;;;;;;5.55;2.50;;;;;;;5.53;95.88;100714.47;5167992;28;20500;-76
2022/04/19 00:43:54;;;;;;;5.15;2.83;;;;;;;5.43;97.04;100719.81;5151855;28;20026;-76
2022/04/19 00:46:25;;;;;;;4.80;2.60;;;;;;;5.40;97.07;100712.06;5173653;28;20030;-76
2022/04/19 00:48:56;;;;;;;4.45;2.55;;;;;;;5.44;96.29;100716.34;5174591;28;20029;-76
2022/04/19 00:51:27;;;;;;;5.32;2.80;;;;;;;5.47;96.56;100717.16;5170411;28;20030;-76
2022/04/19 00:53:58;;;;;;;5.07;2.90;;;;;;;5.47;96.92;100711.09;5172922;28;20044;-76
2022/04/19 00:56:29;;;;;;;5.75;2.40;;;;;;;5.44;96.59;100712.00;5171343;28;20018;-76
2022/04/19 00:58:59;;;;;;;5.18;3.00;;;;;;;5.31;95.24;100717.34;5173556;28;20041;-76
2022/04/19 01:01:30;;;;;;;5.07;2.65;;;;;;;5.33;97.01;100707.81;5171247;28;20019;-76
2022/04/19 01:04:00;;;;;;;4.28;2.55;;;;;;;5.27;98.18;100713.09;5173286;28;20029;-76
2022/04/19 01:06:30;;;;;;;5.97;2.80;;;;;;;5.46;96.73;100709.41;5171532;28;20029;-76
2022/04/19 01:09:01;;;;;;;4.75;2.75;;;;;;;5.45;95.78;100703.38;5173150;28;20044;-77
2022/04/19 01:14:21;;;;;;;4.50;2.60;;;;;;;5.27;98.76;100707.03;5171055;28;20555;-76
2022/04/19 01:16:52;;;;;;;4.13;2.50;;;;;;;5.25;98.75;100711.38;5156473;28;20057;-76
2022/04/19 01:19:22;;;;;;;3.65;2.40;;;;;;;5.35;98.90;100706.06;5166280;28;20034;-76
2022/04/19 01:21:54;;;;;;;4.07;2.50;;;;;;;5.41;95.90;100706.84;5153860;28;20423;-76
2022/04/19 01:24:24;;;;;;;4.18;2.20;;;;;;;5.54;93.39;100697.22;5170896;28;20061;-76
2022/04/19 01:26:55;;;;;;;3.67;2.00;;;;;;;5.59;92.48;100695.41;5173279;28;20727;-76
2022/04/19 01:29:26;;;;;;;3.13;1.95;;;;;;;5.47;94.33;100690.38;5169552;28;20765;-76
2022/04/19 01:31:57;;;;;;;3.83;2.10;;;;;;;5.46;94.37;100699.03;5166528;28;20033;-76
2022/04/19 01:34:28;;;;;;;3.55;2.30;;;;;;;5.56;92.79;100696.28;5170377;28;20100;-76
2022/04/19 01:36:58;;;;;;;3.25;2.00;;;;;;;5.31;92.52;100691.44;5173119;28;20057;-76
2022/04/19 01:42:17;;;;;;;5.15;2.95;;;;;;;5.17;96.82;100685.56;5170180;28;20122;-76
2022/04/19 01:44:48;;;;;;;5.35;2.85;;;;;;;5.17;96.41;100685.56;5173212;28;20395;-76
2022/04/19 01:47:18;;;;;;;5.40;3.47;;;;;;;5.29;96.60;100689.78;5170144;28;20033;-76
2022/04/19 01:49:48;;;;;;;6.35;3.75;;;;;;;5.38;96.08;100689.63;5172989;28;20029;-76
2022/04/19 01:52:18;;;;;;;6.20;3.90;;;;;;;5.53;95.62;100690.28;5168496;28;20026;-76
2022/04/19 01:54:49;;;;;;;7.45;3.47;;;;;;;5.53;95.40;100693.75;5172252;28;20032;-76
2022/04/19 01:57:19;;;;;;;9.38;3.28;;;;;;;5.57;94.61;100689.38;5169533;28;20556;-76
2022/04/19 01:59:49;;;;;;;6.57;3.05;;;;;;;5.57;95.09;100690.22;5169101;28;20404;-76
2022/04/19 02:02:20;;;;;;;7.55;3.38;;;;;;;5.67;94.37;100685.78;5143334;28;20050;-76
2022/04/19 02:04:50;;;;;;;5.25;3.00;;;;;;;5.59;93.86;100680.69;5172859;28;20029;-76
2022/04/19 02:07:20;;;;;;;5.18;3.30;;;;;;;5.58;94.42;100680.72;5169378;28;20026;-76
2022/04/19 02:09:51;;;;;;;5.82;2.95;;;;;;;5.56;93.56;100679.91;5172921;28;20030;-76
2022/04/19 02:12:23;;;;;;;4.57;2.92;;;;;;;5.35;95.54;100687.94;5168697;28;20476;-76
2022/04/19 02:14:54;;;;;;;5.32;2.80;;;;;;;5.42;95.55;100677.47;5165127;28;20037;-76
2022/04/19 02:17:24;;;;;;;7.85;2.65;;;;;;;5.54;95.53;100676.47;5172554;28;20400;-76
2022/04/19 02:20:06;;;;;;;5.25;2.90;;;;;;;5.55;94.12;100680.78;5169166;28;20100;-76
2022/04/19 02:22:36;;;;;;;6.97;2.88;;;;;;;5.44;95.66;100672.28;5167366;28;20018;-76
2022/04/19 02:25:07;;;;;;;5.97;3.13;;;;;;;5.32;96.11;100685.38;5170176;28;20384;-76
2022/04/19 02:27:39;;;;;;;5.40;2.95;;;;;;;5.31;96.77;100686.25;5170594;28;20030;-76
2022/04/19 02:30:15;;;;;;;4.47;2.60;;;;;;;5.36;95.58;100681.88;5173309;28;20723;-76
2022/04/19 02:32:49;;;;;;;;;;;;;;;5.26;96.15;100680.28;5172408;28;20033;-76
2022/04/19 02:35:20;;;;;;;9.25;2.92;;;;;;;5.24;96.69;100676.88;5169156;28;19952;-76
2022/04/19 02:37:53;;;;;;;4.15;2.58;;;;;;;5.25;97.20;100691.53;5171981;28;20029;-76
2022/04/19 02:40:25;;;;;;;6.47;2.95;;;;;;;5.19;97.35;100683.81;5147340;28;20036;-76
2022/04/19 02:42:55;;;;;;;6.88;3.15;;;;;;;5.12;97.69;100681.34;5171672;28;20096;-76
2022/04/19 02:45:25;;;;;;;9.57;3.00;;;;;;;5.17;97.47;100680.38;5151679;28;20117;-76
2022/04/19 02:48:04;;;;;;;4.97;3.03;;;;;;;5.36;96.59;100676.69;5172467;28;20068;-76
2022/04/19 02:50:45;;;;;;;7.57;3.42;;;;;;;5.23;96.54;100676.88;5170550;28;20037;-76
2022/04/19 02:53:15;;;;;;;6.18;3.10;;;;;;;5.37;97.45;100678.44;5167817;28;20602;-76
2022/04/19 02:55:45;;;;;;;6.63;3.08;;;;;;;5.21;96.15;100674.31;5171383;28;20026;-76
2022/04/19 02:58:16;;;;;;;4.20;2.70;;;;;;;5.26;97.80;100675.13;5169926;28;20033;-76
2022/04/19 03:00:46;;;;;;;6.45;3.13;;;;;;;5.27;97.52;100676.81;5164089;28;20283;-76
2022/04/19 03:03:17;;;;;;;5.20;2.88;;;;;;;5.26;97.81;100682.88;5164272;28;20488;-77
2022/04/19 03:05:48;;;;;;;5.25;2.78;;;;;;;5.27;97.21;100674.22;5171988;28;20508;-76
2022/04/19 03:08:19;;;;;;;8.20;2.90;;;;;;;5.34;96.20;100670.66;5168987;28;20081;-76
2022/04/19 03:10:49;;;;;;;7.70;3.50;;;;;;;5.16;96.73;100673.50;5154300;28;20459;-76
2022/04/19 03:13:19;;;;;;;6.68;3.00;;;;;;;5.16;97.33;100670.91;5168727;28;20034;-76
2022/04/19 03:15:50;;;;;;;4.88;2.55;;;;;;;5.19;96.72;100668.28;5172500;28;20040;-76
2022/04/19 03:18:20;;;;;;;4.90;2.72;;;;;;;5.35;95.41;100672.38;5168642;28;20452;-76
2022/04/19 03:20:50;;;;;;;5.45;2.83;;;;;;;5.29;95.91;100667.28;5170294;28;20110;-76
2022/04/19 03:28:58;;;;;;;4.72;2.65;;;;;;;5.28;95.98;100672.47;5166159;28;20109;-76
2022/04/19 03:31:28;;;;;;;7.40;3.55;;;;;;;5.52;94.53;100678.19;5142469;28;20026;-76
2022/04/19 03:33:59;;;;;;;4.78;2.70;;;;;;;5.69;93.71;100671.03;5167616;28;20022;-76
2022/04/19 03:36:29;;;;;;;5.07;2.90;;;;;;;5.67;93.44;100675.41;5168747;28;20061;-76
2022/04/19 03:39:00;;;;;;;5.53;2.90;;;;;;;5.60;92.81;100673.78;5153568;28;20483;-76
2022/04/19 03:41:49;;;;;;;5.57;2.90;;;;;;;5.58;93.98;100673.78;5151478;28;20025;-76
2022/04/19 03:44:19;;;;;;;6.20;2.72;;;;;;;5.56;92.66;100674.72;5168089;28;20054;-76
2022/04/19 03:47:08;;;;;;;5.53;2.90;;;;;;;5.71;93.84;100679.69;5171628;28;20123;-76
2022/04/19 03:49:41;;;;;;;5.53;3.20;;;;;;;5.68;94.22;100679.69;5169467;28;20045;-76
2022/04/19 03:52:12;;;;;;;3.92;2.63;;;;;;;5.71;94.08;100679.69;5168237;28;20030;-76
2022/04/19 03:54:42;;;;;;;6.22;3.22;;;;;;;5.68;94.16;100687.47;5166727;28;20323;-76
2022/04/19 03:57:12;;;;;;;5.13;2.90;;;;;;;5.74;93.95;100679.63;5165967;28;20026;-76
2022/04/19 03:59:43;;;;;;;4.63;2.80;;;;;;;5.76;94.08;100683.06;5153367;28;20033;-76
2022/04/19 04:02:13;;;;;;;6.28;2.95;;;;;;;5.69;94.67;100686.59;5171637;28;20029;-76
2022/04/19 04:04:43;;;;;;;8.55;3.00;;;;;;;5.62;94.83;100685.00;5172200;28;20030;-76
2022/04/19 04:07:14;;;;;;;5.07;2.80;;;;;;;5.66;94.53;100686.66;5173971;28;20037;-76
2022/04/19 04:09:44;;;;;;;5.25;2.58;;;;;;;5.66;95.00;100684.06;5154546;28;20123;-76
2022/04/19 04:12:15;;;;;;;7.65;3.20;;;;;;;5.67;94.96;100689.22;5173896;28;20392;-77
2022/04/19 04:14:45;;;;;;;4.85;2.70;;;;;;;5.69;95.16;100691.78;5171890;28;20038;-76
2022/04/19 04:17:18;;;;;;;6.60;2.60;;;;;;;5.71;95.72;100703.03;5174532;28;20591;-76
2022/04/19 04:19:48;;;;;;;4.45;2.55;;;;;;;5.71;95.81;100705.63;5171916;28;20034;-76
2022/04/19 04:22:19;;;;;;;6.50;2.80;;;;;;;5.75;95.21;100707.28;5171970;28;20397;-76
2022/04/19 04:24:49;;;;;;;4.65;2.60;;;;;;;5.71;95.16;100714.22;5173314;28;20057;-76
2022/04/19 04:27:19;;;;;;;5.03;2.38;;;;;;;5.77;93.85;100710.69;5171217;28;20034;-76
2022/04/19 04:29:50;;;;;;;5.35;2.60;;;;;;;5.61;92.97;100707.44;5171140;28;20106;-76
2022/04/19 04:32:21;;;;;;;4.85;2.47;;;;;;;5.72;92.34;100709.91;5161688;28;20061;-76
2022/04/19 04:34:51;;;;;;;5.85;2.58;;;;;;;5.67;90.61;100711.69;5175072;28;20156;-76
2022/04/19 04:37:22;;;;;;;4.28;2.17;;;;;;;5.64;91.04;100714.34;5172466;28;20030;-76
2022/04/19 04:39:52;;;;;;;5.20;2.33;;;;;;;5.55;90.70;100714.47;5167032;28;20644;-77
2022/04/19 04:42:23;;;;;;;3.72;2.00;;;;;;;5.61;90.76;100709.19;5174620;28;20028;-76
2022/04/19 04:44:53;;;;;;;3.78;2.13;;;;;;;5.78;90.23;100708.09;5171273;28;20027;-76
2022/04/19 04:50:13;;;;;;;3.63;2.03;;;;;;;5.97;89.27;100719.94;5172538;28;20598;-77
2022/04/19 04:52:44;;;;;;;4.38;2.53;;;;;;;6.05;89.31;100714.66;5169619;28;20085;-77
2022/04/19 04:55:14;;;;;;;3.97;2.30;;;;;;;5.93;88.47;100718.25;5170552;28;20053;-77
2022/04/19 04:57:44;;;;;;;3.30;2.05;;;;;;;6.04;88.77;100711.19;5171495;28;20057;-76
2022/04/19 05:00:15;;;;;;;5.22;2.20;;;;;;;5.95;88.65;100715.66;5167741;28;20497;-76
2022/04/19 05:02:45;;;;;;;4.80;2.38;;;;;;;6.03;88.22;100714.66;5162321;28;20026;-77
2022/04/19 05:05:15;;;;;;;3.92;2.25;;;;;;;6.22;88.21;100710.91;5164647;28;20026;-76
2022/04/19 05:07:46;;;;;;;4.35;2.35;;;;;;;6.25;87.02;100713.44;5165356;28;20033;-77
2022/04/19 05:10:17;;;;;;;4.32;2.10;;;;;;;6.25;87.54;100704.81;5166425;28;20427;-76
2022/04/19 05:12:47;;;;;;;4.75;2.17;;;;;;;6.33;86.70;100708.13;5173403;28;20076;-76
2022/04/19 05:15:19;;;;;;;3.05;2.00;;;;;;;6.42;86.21;100708.00;5170709;28;20033;-76
2022/04/19 05:17:49;;;;;;;3.63;2.10;;;;;;;6.65;85.91;100704.13;5173860;28;20040;-76
2022/04/19 05:20:20;;;;;;;5.40;2.50;;;;;;;6.65;84.87;100695.47;5170050;28;20400;-76
2022/04/19 05:22:50;;;;;;;4.33;2.40;;;;;;;6.68;83.97;100700.59;5170917;28;20094;-77
2022/04/19 05:25:20;;;;;;;3.72;2.38;;;;;;;7.16;83.49;100699.69;5171616;28;20394;-77
2022/04/19 05:27:50;;;;;;;3.72;2.10;;;;;;;8.28;78.77;100690.22;5173507;28;20061;-77
2022/04/19 05:30:21;;;;;;;2.97;1.90;;;;;;;10.05;72.65;100690.41;5170305;28;20026;-77
2022/04/19 05:32:51;;;;;;;3.30;1.90;;;;;;;11.61;68.85;100685.75;5174447;28;20368;-78
2022/04/19 05:35:22;;;;;;;2.80;1.70;;;;;;;13.21;62.28;100673.78;5163870;28;20018;-78
2022/04/19 05:37:53;;;;;;;3.13;1.55;;;;;;;13.58;60.14;100684.34;5162550;28;20101;-78
2022/04/19 05:40:24;;;;;;;3.58;1.63;;;;;;;14.70;58.52;100678.81;5167899;28;20042;-78
2022/04/19 05:42:54;;;;;;;3.63;2.00;;;;;;;14.13;58.77;100680.81;5173441;28;20041;-78
2022/04/19 05:45:26;;;;;;;4.25;1.83;;;;;;;12.99;59.77;100687.00;5169881;28;20023;-78
2022/04/19 05:47:56;;;;;;;2.50;1.60;;;;;;;11.79;62.61;100696.38;5173522;28;20033;-78
2022/04/19 05:50:26;;;;;;;4.25;2.00;;;;;;;11.15;65.88;100697.06;5166688;28;20038;-78
2022/04/19 05:52:56;;;;;;;3.20;1.90;;;;;;;9.45;72.41;100705.28;5164947;28;20094;-77
2022/04/19 05:55:27;;;;;;;3.35;1.83;;;;;;;8.74;74.72;100706.38;5163602;28;20033;-77
2022/04/19 05:57:57;;;;;;;2.60;1.90;;;;;;;8.27;77.48;100701.53;5163478;28;20045;-77
2022/04/19 06:00:27;;;;;;;3.25;1.98;;;;;;;7.85;75.43;100699.88;5165401;28;20034;-77
2022/04/19 06:05:47;;;;;;;3.35;1.90;;;;;;;7.69;77.25;100698.50;5172289;28;20283;-77
2022/04/19 06:08:17;;;;;;;5.65;2.40;;;;;;;8.15;75.76;100701.78;5150338;28;20374;-77
2022/04/19 06:10:49;;;;;;;4.17;1.53;;;;;;;7.89;73.93;100698.91;5160584;28;20396;-77
2022/04/19 06:13:20;;;;;;;4.95;2.00;;;;;;;7.91;73.29;100697.13;5172816;28;20288;-77
2022/04/19 06:15:50;;;;;;;4.17;1.80;;;;;;;7.44;74.79;100702.53;5168832;28;20064;-77
2022/04/19 06:18:20;;;;;;;3.92;1.80;;;;;;;7.76;73.44;100700.09;5171831;28;20327;-77
2022/04/19 06:20:53;;;;;;;3.03;1.90;;;;;;;7.64;74.98;100705.56;5168622;28;20026;-77
2022/04/19 06:23:25;;;;;;;2.72;1.40;;;;;;;7.91;73.38;100711.91;5158913;28;20030;-77
2022/04/19 06:25:55;;;;;;;3.80;1.60;;;;;;;8.14;73.01;100712.22;5169209;28;20507;-77
2022/04/19 06:28:26;;;;;;;3.97;2.08;;;;;;;8.11;72.95;100702.75;5172169;28;20034;-77
2022/04/19 06:30:56;;;;;;;3.72;1.90;;;;;;;8.53;71.82;100711.31;5169756;28;20026;-77
2022/04/19 06:33:26;;;;;;;6.05;1.83;;;;;;;9.65;69.46;100705.56;5173388;28;20033;-78
2022/04/19 06:35:56;;;;;;;3.15;1.67;;;;;;;10.36;67.56;100706.81;5170977;28;20026;-78
2022/04/19 06:38:27;;;;;;;2.80;1.40;;;;;;;12.56;61.60;100695.84;5169787;28;20031;-78
2022/04/19 06:40:59;;;;;;;2.40;1.40;;;;;;;12.60;59.52;100690.44;5162427;28;20046;-78
2022/04/19 06:43:31;;;;;;;2.05;1.40;;;;;;;14.21;56.05;100697.06;5172789;28;20320;-78
2022/04/19 06:46:02;;;;;;;3.08;1.60;;;;;;;14.22;54.64;100685.66;5171717;28;20030;-78
2022/04/19 06:48:34;;;;;;;2.45;1.48;;;;;;;16.05;51.58;100682.84;5172626;28;20482;-78
2022/04/19 06:51:04;;;;;;;3.35;1.50;;;;;;;16.24;50.90;100675.59;5171479;28;20114;-79
2022/04/19 06:53:37;;;;;;;2.08;1.10;;;;;;;14.44;53.02;100683.66;5169639;28;20137;-78
2022/04/19 06:56:07;;;;;;;2.35;1.38;;;;;;;14.36;52.96;100688.44;5172412;28;20038;-78
2022/04/19 06:58:39;;;;;;;2.37;1.30;;;;;;;16.57;49.86;100671.06;5172925;28;20030;-79
2022/04/19 07:01:10;;;;;;;2.38;1.20;;;;;;;16.72;48.56;100675.44;5172472;28;20328;-78
2022/04/19 07:03:40;;;;;;;2.60;1.23;;;;;;;15.37;49.94;100682.31;5166879;28;20027;-78
2022/04/19 07:06:11;;;;;;;3.53;1.10;;;;;;;17.44;48.76;100676.31;5170842;28;20034;-79
2022/04/19 07:08:41;;;;;;;2.25;1.10;;;;;;;16.98;47.28;100682.66;5169946;28;20057;-79
2022/04/19 07:11:12;;;;;;;1.80;1.10;;;;;;;16.82;47.93;100679.25;5171455;28;20033;-78
2022/04/19 07:13:43;;;;;;;1.77;1.00;;;;;;;17.96;46.61;100691.44;5165229;28;20300;-79
2022/04/19 07:16:13;;;;;;;1.67;1.00;;;;;;;15.45;49.79;100696.78;5164300;28;20029;-78
2022/04/19 07:18:43;;;;;;;2.23;1.20;;;;;;;15.25;50.39;100693.44;5164276;28;20032;-78
2022/04/19 07:26:52;;;;;;;2.63;1.23;;;;;;;19.81;43.72;100683.09;5166027;28;20133;-78
2022/04/19 07:29:22;;;;;;;3.60;1.10;;;;;;;19.53;42.46;100683.38;5176276;28;20029;-78
2022/04/19 07:31:53;;;;;;;2.43;1.30;;;;;;;20.24;43.02;100671.09;5173075;28;20515;-79
2022/04/19 07:34:24;;;;;;;3.20;1.10;;;;;;;20.05;42.76;100684.03;5176811;28;20342;-78
2022/04/19 07:36:56;;;;;;;2.63;1.30;;;;;;;19.63;42.69;100681.75;5174079;28;20290;-78
2022/04/19 07:39:26;;;;;;;1.50;1.10;;;;;;;16.14;45.26;100699.94;5168299;28;20034;-78
2022/04/19 07:42:00;;;;;;;2.42;1.20;;;;;;;15.57;47.66;100700.53;5168981;28;20054;-78
2022/04/19 07:44:31;;;;;;;2.03;1.20;;;;;;;14.11;51.00;100709.78;5175482;28;20026;-78
2022/04/19 07:47:01;;;;;;;2.70;1.20;;;;;;;14.23;50.87;100706.59;5174026;28;20080;-78
2022/04/19 07:49:31;;;;;;;2.13;1.20;;;;;;;15.56;47.79;100694.41;5175117;28;20458;-78
2022/04/19 07:52:02;;;;;;;2.00;1.10;;;;;;;16.72;46.89;100691.28;5173037;28;20033;-77
2022/04/19 07:54:32;;;;;;;2.10;1.05;;;;;;;19.16;43.72;100681.59;5174112;28;20293;-78
2022/04/19 07:57:03;;;;;;;3.67;1.30;;;;;;;18.38;44.35;100677.28;5175308;28;20483;-78
2022/04/19 07:59:33;;;;;;;3.08;1.30;;;;;;;19.03;42.63;100672.75;5173541;28;20578;-78
2022/04/19 08:02:04;;;;;;;3.70;1.40;;;;;;;17.22;44.80;100681.19;5174471;28;20044;-78
2022/04/19 08:04:34;;;;;;;2.80;1.40;;;;;;;19.89;41.77;100670.13;5173614;28;20287;-78
2022/04/19 08:07:04;;;;;;;3.90;2.03;;;;;;;18.76;41.03;100685.19;5174463;28;20045;-78
2022/04/19 08:09:35;;;;;;;4.72;1.95;;;;;;;16.62;45.48;100691.91;5169272;28;20027;-78
2022/04/19 08:12:05;;;;;;;6.10;2.40;;;;;;;18.30;42.53;100690.13;5168606;28;20030;-76
2022/04/19 08:14:36;;;;;;;5.88;1.90;;;;;;;15.73;47.16;100696.13;5159678;28;20051;-76
2022/04/19 08:17:06;;;;;;;4.37;2.10;;;;;;;15.45;45.41;100696.78;5167230;28;20030;-76
2022/04/19 08:19:36;;;;;;;3.45;1.92;;;;;;;16.06;45.69;100695.09;5151438;28;20775;-76
2022/04/19 08:22:08;;;;;;;6.00;1.77;;;;;;;16.73;44.66;100686.88;5172234;28;20026;-76
2022/04/19 08:24:38;;;;;;;2.40;1.50;;;;;;;16.72;46.39;100695.72;5172266;28;20771;-76
2022/04/19 08:27:09;;;;;;;3.92;1.80;;;;;;;19.25;43.54;100683.59;5172061;28;20037;-76
2022/04/19 08:29:39;;;;;;;4.20;1.80;;;;;;;19.86;41.40;100686.28;5172479;28;20050;-76
2022/04/19 08:32:10;;;;;;;3.07;1.57;;;;;;;20.14;40.93;100670.06;5171832;28;20022;-76
2022/04/19 08:34:41;;;;;;;4.45;1.90;;;;;;;19.48;42.16;100687.28;5171690;28;20339;-76
2022/04/19 08:37:11;;;;;;;3.55;1.70;;;;;;;18.37;42.67;100699.41;5153391;28;20034;-76
2022/04/19 08:39:41;;;;;;;2.85;1.50;;;;;;;19.40;42.60;100685.19;5172330;28;20041;-76
2022/04/19 08:42:12;;;;;;;3.20;1.97;;;;;;;17.30;44.57;100692.97;5170285;28;20030;-76
2022/04/19 08:44:44;;;;;;;3.55;2.05;;;;;;;16.51;45.20;100697.81;5173043;28;20759;-76
2022/04/19 08:47:15;;;;;;;4.30;2.15;;;;;;;17.16;43.87;100692.13;5166502;28;20087;-76
2022/04/19 08:49:47;;;;;;;2.63;1.67;;;;;;;17.77;44.56;100692.69;5167900;28;20530;-78
2022/04/19 08:52:18;;;;;;;3.35;1.70;;;;;;;18.79;42.09;100690.28;5153238;28;20033;-78
2022/04/19 08:57:37;;;;;;;2.63;1.42;;;;;;;19.87;39.88;100682.66;5170743;28;20472;-78
2022/04/19 09:00:08;;;;;;;2.40;1.40;;;;;;;19.26;40.11;100679.16;5168903;28;20042;-78
2022/04/19 09:02:38;;;;;;;2.42;1.50;;;;;;;19.12;41.96;100687.16;5165577;28;20274;-78
2022/04/19 09:05:19;;;;;;;4.88;1.90;;;;;;;16.67;44.16;100692.47;5167138;28;20112;-78
2022/04/19 09:07:51;;;;;;;4.95;1.45;;;;;;;16.50;44.67;100696.13;5168882;28;20079;-78
2022/04/19 09:10:30;;;;;;;1.92;1.10;;;;;;;18.64;41.06;100685.19;5173326;28;20611;-78
2022/04/19 09:13:06;;;;;;;2.60;1.38;;;;;;;17.77;41.27;100687.41;5167769;28;20473;-78
2022/04/19 09:15:41;;;;;;;2.08;1.13;;;;;;;19.79;38.44;100679.69;5172932;28;20502;-78
2022/04/19 09:18:24;;;;;;;2.50;1.13;;;;;;;18.50;41.64;100687.06;5168918;28;20088;-78
2022/04/19 09:20:56;;;;;;;2.80;1.40;;;;;;;15.79;45.48;100696.66;5148944;28;20034;-78
2022/04/19 09:23:29;;;;;;;2.63;1.23;;;;;;;16.38;46.91;100703.88;5170099;28;20029;-78
2022/04/19 09:26:00;;;;;;;2.58;1.42;;;;;;;14.16;48.04;100710.47;5167864;28;20042;-77
2022/04/19 09:28:31;;;;;;;2.63;1.20;;;;;;;14.73;48.80;100704.13;5169148;28;20460;-77
2022/04/19 09:31:09;;;;;;;3.33;1.67;;;;;;;13.81;50.84;100699.88;5172242;28;20512;-77
2022/04/19 09:33:40;;;;;;;4.45;1.42;;;;;;;14.38;50.15;100700.59;5171630;28;20050;-77
2022/04/19 09:36:10;;;;;;;4.70;1.60;;;;;;;14.01;51.49;100708.53;5171159;28;20080;-77
2022/04/19 09:38:49;;;;;;;3.75;1.30;;;;;;;13.24;51.88;100705.97;5171780;28;20672;-77
2022/04/19 09:41:31;;;;;;;4.40;1.40;;;;;;;14.11;51.59;100701.88;5169274;28;20507;-77
2022/04/19 09:44:15;;;;;;;3.15;1.42;;;;;;;13.71;51.09;100704.69;5167490;28;20044;-77
2022/04/19 09:47:09;;;;;;;2.78;1.23;;;;;;;13.93;49.46;100700.13;5167748;28;20030;-77
2022/04/19 09:49:47;;;;;;;3.50;1.65;;;;;;;13.57;50.63;100698.38;5167431;28;20026;-77
2022/04/19 09:52:20;;;;;;;4.10;1.60;;;;;;;13.26;53.24;100705.94;5167719;28;20052;-77
2022/04/19 09:55:00;;;;;;;3.90;1.67;;;;;;;14.01;51.52;100702.41;5171453;28;20033;-77
2022/04/19 09:57:35;;;;;;;2.92;1.50;;;;;;;13.29;53.08;100706.66;5167044;28;20033;-77
2022/04/19 10:00:11;;;;;;;3.07;1.47;;;;;;;12.71;53.65;100711.81;5170860;28;20604;-77
2022/04/19 10:08:23;;;;;;;6.35;1.52;;;;;;;13.06;52.85;100709.41;5168054;28;20050;-77
2022/04/19 10:10:56;;;;;;;6.78;1.70;;;;;;;12.57;53.00;100705.44;5165029;28;20030;-77
2022/04/19 10:13:28;;;;;;;2.63;1.50;;;;;;;12.91;54.28;100704.78;5171523;28;20106;-77
2022/04/19 10:15:59;;;;;;;2.50;1.70;;;;;;;12.81;55.10;100707.88;5168999;28;20113;-77
2022/04/19 10:18:29;;;;;;;4.82;1.75;;;;;;;13.34;52.56;100701.19;5159693;28;20019;-77
2022/04/19 10:21:02;;;;;;;2.83;1.70;;;;;;;13.39;54.38;100704.47;5168783;28;20052;-77
2022/04/19 10:23:40;;;;;;;2.90;1.55;;;;;;;12.85;54.46;100704.19;5168356;28;20284;-77
2022/04/19 10:26:24;;;;;;;3.53;1.70;;;;;;;13.13;55.13;100705.63;5169839;28;20036;-77
2022/04/19 10:28:58;;;;;;;3.13;1.60;;;;;;;12.97;53.66;100706.34;5164685;28;20064;-77
2022/04/19 10:31:35;;;;;;;3.35;1.63;;;;;;;13.64;54.17;100705.03;5171261;28;20021;-77
2022/04/19 10:34:05;;;;;;;2.20;1.50;;;;;;;13.54;51.90;100698.53;5169282;28;20053;-77
2022/04/19 10:36:39;;;;;;;2.28;1.35;;;;;;;12.77;51.71;100703.69;5170469;28;20030;-77
2022/04/19 10:39:13;;;;;;;2.80;1.63;;;;;;;12.95;52.62;100705.56;5170648;28;20476;-77
2022/04/19 10:42:00;;;;;;;3.22;1.52;;;;;;;12.83;52.97;100706.03;5169361;28;20045;-77
2022/04/19 10:44:48;;;;;;;2.55;1.35;;;;;;;13.23;52.92;100701.66;5166512;28;20034;-77
2022/04/19 10:47:20;;;;;;;2.33;1.20;;;;;;;13.28;53.29;100694.44;5162584;28;20106;-77
2022/04/19 10:50:05;;;;;;;2.95;1.60;;;;;;;13.78;50.14;100700.00;5146362;28;20114;-77
2022/04/19 10:52:36;;;;;;;1.98;1.33;;;;;;;13.42;50.14;100696.44;5166318;28;20507;-77
2022/04/19 10:55:10;;;;;;;3.05;1.25;;;;;;;13.83;50.75;100692.75;5169590;28;20033;-77
2022/04/19 11:00:34;;;;;;;1.95;1.10;;;;;;;13.35;51.27;100689.75;5167127;28;20041;-77
2022/04/19 11:03:05;;;;;;;2.15;1.05;;;;;;;12.83;49.58;100694.72;5167528;28;20109;-77
2022/04/19 11:05:48;;;;;;;3.10;1.40;;;;;;;13.18;50.19;100693.16;5168568;28;20048;-77
2022/04/19 11:08:25;;;;;;;2.78;0.82;;;;;;;12.86;47.25;100689.31;5155685;28;20030;-77
2022/04/19 11:10:55;;;;;;;3.05;0.90;;;;;;;12.88;47.71;100683.94;5147520;28;20026;-77
2022/04/19 11:13:27;;;;;;;4.53;1.37;;;;;;;13.09;50.32;100695.31;5175791;28;20033;-77
2022/04/19 11:16:08;;;;;;;2.92;1.20;;;;;;;12.95;47.48;100697.69;5172660;28;20038;-77
2022/04/19 11:18:39;;;;;;;2.47;1.10;;;;;;;13.05;47.81;100689.34;5174033;28;20678;-77
2022/04/19 11:21:13;;;;;;;1.42;0.90;;;;;;;13.29;49.86;100680.41;5172634;28;20162;-77
2022/04/19 11:23:44;;;;;;;2.95;1.08;;;;;;;13.27;46.83;100694.50;5173391;28;20037;-77
2022/04/19 11:26:26;;;;;;;2.50;0.90;;;;;;;13.59;45.51;100688.66;5172891;28;20030;-77
2022/04/19 11:29:09;;;;;;;2.47;1.30;;;;;;;13.68;46.45;100678.56;5168928;28;20493;-77
2022/04/19 11:31:45;;;;;;;1.88;1.00;;;;;;;13.55;45.19;100684.47;5173206;28;20022;-77
2022/04/19 11:34:16;;;;;;;1.55;0.70;;;;;;;13.34;45.37;100682.78;5174955;28;20030;-77
2022/04/19 11:36:47;;;;;;;1.73;0.90;;;;;;;13.17;46.26;100690.56;5172436;28;20053;-77
2022/04/19 11:46:43;;;;;;;1.33;0.85;;;;;;;13.18;45.05;100681.78;5167781;28;20427;-77
2022/04/19 11:48:03;;;;;;;3.95;1.40;;;;;;;13.21;47.11;100681.66;5169693;28;20065;-77
2022/04/19 11:50:34;;;;;;;2.67;1.08;;;;;;;13.52;47.56;100685.47;5172497;28;20030;-77
2022/04/19 11:53:19;;;;;;;1.77;1.00;;;;;;;13.33;46.75;100681.97;5145122;28;20092;-77
2022/04/19 11:55:51;;;;;;;1.93;0.90;;;;;;;13.16;48.57;100687.13;5172045;28;20049;-77
2022/04/19 11:58:22;;;;;;;1.90;1.00;;;;;;;13.15;46.88;100681.91;5175342;28;20028;-77
2022/04/19 12:01:03;;;;;;;2.10;1.10;;;;;;;13.30;47.75;100668.97;5168013;28;20086;-77
2022/04/19 12:03:36;;;;;;;2.30;1.10;;;;;;;13.48;47.40;100669.91;5165498;28;20077;-77
2022/04/19 12:06:09;;;;;;;2.25;0.95;;;;;;;13.61;48.98;100665.78;5165522;28;20540;-77
2022/04/19 12:08:41;;;;;;;2.17;0.90;;;;;;;13.55;48.42;100672.19;5167533;28;20025;-77
2022/04/19 12:11:16;;;;;;;2.70;1.13;;;;;;;13.37;47.82;100666.94;5173670;28;20453;-77
2022/04/19 12:13:47;;;;;;;1.83;1.10;;;;;;;13.83;46.18;100666.50;5172014;28;20027;-77
2022/04/19 12:16:39;;;;;;;2.85;0.90;;;;;;;13.94;46.20;100666.84;5174340;28;20273;-77
2022/04/19 12:19:12;;;;;;;4.22;1.00;;;;;;;13.80;45.56;100671.91;5171733;28;20176;-78
2022/04/19 12:21:45;;;;;;;1.25;0.80;;;;;;;13.62;47.61;100663.13;5171297;28;20086;-77
2022/04/19 12:24:23;;;;;;;1.52;0.82;;;;;;;13.51;46.81;100664.50;5168504;28;20040;-78
2022/04/19 12:27:03;;;;;;;1.67;1.00;;;;;;;13.66;48.19;100663.81;5166269;28;20033;-77
2022/04/19 12:29:35;;;;;;;3.50;1.13;;;;;;;13.60;47.01;100656.22;5173064;28;20107;-78
2022/04/19 12:32:06;;;;;;;1.58;0.90;;;;;;;13.88;46.67;100652.22;5169211;28;20124;-77